sensor_id;sensor_type;location;lat;lon;timestamp;pressure;altitude;pressure_sealevel;temperature;humidity
35489;BME280;21602;55.670;37.578;2023-04-25T00:00:46;99003.91;;;14.83;45.61
35489;BME280;21602;55.670;37.578;2023-04-25T00:03:12;99009.28;;;14.88;45.57
35489;BME280;21602;55.670;37.578;2023-04-25T00:05:39;99007.66;;;14.92;45.51
35489;BME280;21602;55.670;37.578;2023-04-25T00:08:05;99012.22;;;14.92;45.43
35489;BME280;21602;55.670;37.578;2023-04-25T00:10:31;99017.63;;;14.87;45.72
35489;BME280;21602;55.670;37.578;2023-04-25T00:12:57;99021.63;;;14.84;45.74
35489;BME280;21602;55.670;37.578;2023-04-25T00:15:23;99021.91;;;14.88;45.79
35489;BME280;21602;55.670;37.578;2023-04-25T00:17:49;99027.81;;;14.95;45.77
35489;BME280;21602;55.670;37.578;2023-04-25T00:20:18;99029.69;;;14.99;45.61
35489;BME280;21602;55.670;37.578;2023-04-25T00:22:44;99020.00;;;14.98;45.65
35489;BME280;21602;55.670;37.578;2023-04-25T00:25:10;99013.03;;;14.92;45.64
35489;BME280;21602;55.670;37.578;2023-04-25T00:27:36;99016.53;;;14.88;45.91
35489;BME280;21602;55.670;37.578;2023-04-25T00:30:02;99019.22;;;14.82;45.77
35489;BME280;21602;55.670;37.578;2023-04-25T00:32:31;99012.78;;;14.78;46.05
35489;BME280;21602;55.670;37.578;2023-04-25T00:34:57;99017.63;;;14.81;46.21
35489;BME280;21602;55.670;37.578;2023-04-25T00:37:23;99009.00;;;14.84;46.40
35489;BME280;21602;55.670;37.578;2023-04-25T00:39:50;99015.44;;;14.83;46.28
35489;BME280;21602;55.670;37.578;2023-04-25T00:42:16;99014.66;;;14.83;46.34
35489;BME280;21602;55.670;37.578;2023-04-25T00:44:43;99011.97;;;14.88;46.52
35489;BME280;21602;55.670;37.578;2023-04-25T00:47:10;99003.38;;;14.91;46.55
35489;BME280;21602;55.670;37.578;2023-04-25T00:49:36;99017.59;;;14.92;46.44
35489;BME280;21602;55.670;37.578;2023-04-25T00:52:02;99013.84;;;14.93;46.43
35489;BME280;21602;55.670;37.578;2023-04-25T00:54:28;99004.69;;;14.89;46.47
35489;BME280;21602;55.670;37.578;2023-04-25T00:56:57;99009.00;;;14.79;46.51
35489;BME280;21602;55.670;37.578;2023-04-25T00:59:23;99012.78;;;14.78;46.89
35489;BME280;21602;55.670;37.578;2023-04-25T01:01:49;99012.78;;;14.78;47.00
35489;BME280;21602;55.670;37.578;2023-04-25T01:04:15;99011.41;;;14.81;47.03
35489;BME280;21602;55.670;37.578;2023-04-25T01:06:42;99005.78;;;14.77;46.98
35489;BME280;21602;55.670;37.578;2023-04-25T01:09:07;99011.16;;;14.77;47.20
35489;BME280;21602;55.670;37.578;2023-04-25T01:11:33;99004.16;;;14.76;47.36
35489;BME280;21602;55.670;37.578;2023-04-25T01:13:59;99004.72;;;14.73;47.50
35489;BME280;21602;55.670;37.578;2023-04-25T01:16:27;99003.34;;;14.66;47.57
35489;BME280;21602;55.670;37.578;2023-04-25T01:18:54;98995.84;;;14.63;47.71
35489;BME280;21602;55.670;37.578;2023-04-25T01:21:20;98998.78;;;14.56;47.83
35489;BME280;21602;55.670;37.578;2023-04-25T01:23:47;98988.81;;;14.46;48.25
35489;BME280;21602;55.670;37.578;2023-04-25T01:26:13;98994.97;;;14.47;48.62
35489;BME280;21602;55.670;37.578;2023-04-25T01:28:40;98985.03;;;14.47;48.19
35489;BME280;21602;55.670;37.578;2023-04-25T01:31:12;98989.09;;;14.45;48.45
35489;BME280;21602;55.670;37.578;2023-04-25T01:33:38;98985.59;;;14.44;48.47
35489;BME280;21602;55.670;37.578;2023-04-25T01:36:04;98986.13;;;14.41;48.40
35489;BME280;21602;55.670;37.578;2023-04-25T01:38:31;98984.25;;;14.37;48.64
35489;BME280;21602;55.670;37.578;2023-04-25T01:40:57;98990.13;;;14.33;48.75
35489;BME280;21602;55.670;37.578;2023-04-25T01:43:23;98992.00;;;14.33;48.76
35489;BME280;21602;55.670;37.578;2023-04-25T01:45:50;98993.91;;;14.32;48.88
35489;BME280;21602;55.670;37.578;2023-04-25T01:48:17;98981.53;;;14.31;48.67
35489;BME280;21602;55.670;37.578;2023-04-25T01:50:43;98986.13;;;14.31;48.71
35489;BME280;21602;55.670;37.578;2023-04-25T01:53:12;98975.09;;;14.32;48.92
35489;BME280;21602;55.670;37.578;2023-04-25T01:55:39;98977.25;;;14.35;48.74
35489;BME280;21602;55.670;37.578;2023-04-25T01:58:09;98975.91;;;14.38;48.77
35489;BME280;21602;55.670;37.578;2023-04-25T02:01:04;98972.16;;;14.39;48.94
35489;BME280;21602;55.670;37.578;2023-04-25T02:03:38;98971.63;;;14.42;49.04
35489;BME280;21602;55.670;37.578;2023-04-25T02:06:08;98969.22;;;14.46;48.89
35489;BME280;21602;55.670;37.578;2023-04-25T02:08:38;98975.16;;;14.53;49.11
35489;BME280;21602;55.670;37.578;2023-04-25T02:11:03;98974.59;;;14.56;48.94
35489;BME280;21602;55.670;37.578;2023-04-25T02:13:36;98963.34;;;14.54;48.67
35489;BME280;21602;55.670;37.578;2023-04-25T02:16:12;98971.66;;;14.52;48.79
35489;BME280;21602;55.670;37.578;2023-04-25T02:18:39;98967.91;;;14.53;48.82
35489;BME280;21602;55.670;37.578;2023-04-25T02:21:06;98972.72;;;14.56;48.76
35489;BME280;21602;55.670;37.578;2023-04-25T02:23:32;98963.34;;;14.64;49.29
35489;BME280;21602;55.670;37.578;2023-04-25T02:26:00;98971.09;;;14.76;49.18
35489;BME280;21602;55.670;37.578;2023-04-25T02:28:25;98968.16;;;14.88;49.20
35489;BME280;21602;55.670;37.578;2023-04-25T02:30:52;98971.63;;;14.98;48.63
35489;BME280;21602;55.670;37.578;2023-04-25T02:33:18;98974.28;;;15.08;48.76
35489;BME280;21602;55.670;37.578;2023-04-25T02:35:44;98975.63;;;15.16;48.51
35489;BME280;21602;55.670;37.578;2023-04-25T02:38:10;98969.72;;;15.19;48.33
35489;BME280;21602;55.670;37.578;2023-04-25T02:40:35;98973.72;;;15.22;48.49
35489;BME280;21602;55.670;37.578;2023-04-25T02:43:01;98967.81;;;15.25;48.35
35489;BME280;21602;55.670;37.578;2023-04-25T02:45:27;98965.13;;;15.30;48.05
35489;BME280;21602;55.670;37.578;2023-04-25T02:47:53;98963.75;;;15.27;47.79
35489;BME280;21602;55.670;37.578;2023-04-25T02:50:19;98965.13;;;15.25;47.93
35489;BME280;21602;55.670;37.578;2023-04-25T02:52:45;98965.66;;;15.22;47.96
35489;BME280;21602;55.670;37.578;2023-04-25T02:55:15;98963.78;;;15.22;47.79
35489;BME280;21602;55.670;37.578;2023-04-25T02:57:42;98971.56;;;15.29;47.97
35489;BME280;21602;55.670;37.578;2023-04-25T03:00:12;98963.22;;;15.30;47.91
35489;BME280;21602;55.670;37.578;2023-04-25T03:02:39;98965.91;;;15.30;47.80
35489;BME280;21602;55.670;37.578;2023-04-25T03:05:06;98968.31;;;15.32;47.87
35489;BME280;21602;55.670;37.578;2023-04-25T03:07:33;98969.94;;;15.33;47.63
35489;BME280;21602;55.670;37.578;2023-04-25T03:10:00;98972.91;;;15.31;47.78
35489;BME280;21602;55.670;37.578;2023-04-25T03:12:30;98977.19;;;15.32;47.97
35489;BME280;21602;55.670;37.578;2023-04-25T03:14:55;98976.13;;;15.33;48.01
35489;BME280;21602;55.670;37.578;2023-04-25T03:17:21;98979.34;;;15.35;48.00
35489;BME280;21602;55.670;37.578;2023-04-25T03:19:49;98981.75;;;15.37;48.01
35489;BME280;21602;55.670;37.578;2023-04-25T03:22:15;98982.31;;;15.24;48.43
35489;BME280;21602;55.670;37.578;2023-04-25T03:24:41;98982.09;;;15.10;48.54
35489;BME280;21602;55.670;37.578;2023-04-25T03:27:08;98988.03;;;14.97;49.08
35489;BME280;21602;55.670;37.578;2023-04-25T03:29:34;98986.69;;;14.89;49.36
35489;BME280;21602;55.670;37.578;2023-04-25T03:32:03;98988.06;;;14.81;49.66
35489;BME280;21602;55.670;37.578;2023-04-25T03:34:28;98981.63;;;14.72;50.23
35489;BME280;21602;55.670;37.578;2023-04-25T03:36:54;98986.69;;;14.74;50.47
35489;BME280;21602;55.670;37.578;2023-04-25T03:39:21;98985.34;;;14.76;50.54
35489;BME280;21602;55.670;37.578;2023-04-25T03:41:50;98990.19;;;14.74;50.73
35489;BME280;21602;55.670;37.578;2023-04-25T03:44:17;98984.81;;;14.74;50.95
35489;BME280;21602;55.670;37.578;2023-04-25T03:46:44;98980.25;;;14.75;51.22
35489;BME280;21602;55.670;37.578;2023-04-25T03:49:10;98986.44;;;14.75;51.42
35489;BME280;21602;55.670;37.578;2023-04-25T03:51:54;98987.78;;;14.73;51.54
35489;BME280;21602;55.670;37.578;2023-04-25T03:54:21;98984.03;;;14.74;51.58
35489;BME280;21602;55.670;37.578;2023-04-25T03:56:57;98985.63;;;14.75;51.67
35489;BME280;21602;55.670;37.578;2023-04-25T03:59:26;98986.16;;;14.82;52.09
35489;BME280;21602;55.670;37.578;2023-04-25T04:01:52;98987.50;;;14.79;51.86
35489;BME280;21602;55.670;37.578;2023-04-25T04:04:18;98983.22;;;14.73;52.00
35489;BME280;21602;55.670;37.578;2023-04-25T04:06:44;98974.34;;;14.68;52.24
35489;BME280;21602;55.670;37.578;2023-04-25T04:09:19;98979.97;;;14.61;52.36
35489;BME280;21602;55.670;37.578;2023-04-25T04:11:46;98975.16;;;14.53;52.75
35489;BME280;21602;55.670;37.578;2023-04-25T04:14:13;98981.03;;;14.45;52.96
35489;BME280;21602;55.670;37.578;2023-04-25T04:16:44;98982.94;;;14.49;53.66
35489;BME280;21602;55.670;37.578;2023-04-25T04:19:11;98979.72;;;14.57;53.46
35489;BME280;21602;55.670;37.578;2023-04-25T04:21:40;98978.38;;;14.65;53.63
35489;BME280;21602;55.670;37.578;2023-04-25T04:24:06;98981.34;;;14.69;53.46
35489;BME280;21602;55.670;37.578;2023-04-25T04:26:44;98981.59;;;14.77;53.67
35489;BME280;21602;55.670;37.578;2023-04-25T04:29:27;98979.44;;;14.84;53.92
35489;BME280;21602;55.670;37.578;2023-04-25T04:32:05;98986.16;;;14.92;53.91
35489;BME280;21602;55.670;37.578;2023-04-25T04:34:32;98992.84;;;15.00;53.71
35489;BME280;21602;55.670;37.578;2023-04-25T04:36:59;98987.75;;;14.98;53.95
35489;BME280;21602;55.670;37.578;2023-04-25T04:39:26;98985.06;;;14.98;53.62
35489;BME280;21602;55.670;37.578;2023-04-25T04:42:04;98991.25;;;15.04;53.76
35489;BME280;21602;55.670;37.578;2023-04-25T04:44:44;98976.19;;;15.03;53.48
35489;BME280;21602;55.670;37.578;2023-04-25T04:47:33;98984.81;;;15.05;54.07
35489;BME280;21602;55.670;37.578;2023-04-25T04:50:12;98981.53;;;15.13;53.46
35489;BME280;21602;55.670;37.578;2023-04-25T04:52:58;98976.72;;;15.20;53.21
35489;BME280;21602;55.670;37.578;2023-04-25T04:55:48;98973.97;;;15.35;55.03
35489;BME280;21602;55.670;37.578;2023-04-25T04:58:46;98975.81;;;15.45;53.90
35489;BME280;21602;55.670;37.578;2023-04-25T05:01:34;98974.66;;;15.61;53.16
35489;BME280;21602;55.670;37.578;2023-04-25T05:04:24;98966.03;;;15.75;53.44
35489;BME280;21602;55.670;37.578;2023-04-25T05:06:59;98971.31;;;16.00;52.98
35489;BME280;21602;55.670;37.578;2023-04-25T05:09:31;98966.88;;;16.20;52.36
35489;BME280;21602;55.670;37.578;2023-04-25T05:12:19;98961.34;;;16.40;51.91
35489;BME280;21602;55.670;37.578;2023-04-25T05:14:48;98963.91;;;16.55;51.37
35489;BME280;21602;55.670;37.578;2023-04-25T05:17:33;98965.19;;;16.63;50.38
35489;BME280;21602;55.670;37.578;2023-04-25T05:19:59;98960.84;;;16.72;49.89
35489;BME280;21602;55.670;37.578;2023-04-25T05:22:39;98955.91;;;16.79;50.10
35489;BME280;21602;55.670;37.578;2023-04-25T05:25:20;98956.84;;;16.94;50.09
35489;BME280;21602;55.670;37.578;2023-04-25T05:28:13;98955.69;;;17.05;49.66
35489;BME280;21602;55.670;37.578;2023-04-25T05:30:58;98951.53;;;17.12;48.58
35489;BME280;21602;55.670;37.578;2023-04-25T05:33:31;98955.22;;;17.22;48.56
35489;BME280;21602;55.670;37.578;2023-04-25T05:35:57;98955.84;;;17.37;47.98
35489;BME280;21602;55.670;37.578;2023-04-25T05:38:24;98959.25;;;17.48;47.45
35489;BME280;21602;55.670;37.578;2023-04-25T05:41:22;98947.63;;;17.72;47.01
35489;BME280;21602;55.670;37.578;2023-04-25T05:43:58;98950.31;;;17.96;46.62
35489;BME280;21602;55.670;37.578;2023-04-25T05:46:47;98947.88;;;18.13;46.32
35489;BME280;21602;55.670;37.578;2023-04-25T05:49:20;98949.34;;;18.24;46.00
35489;BME280;21602;55.670;37.578;2023-04-25T05:52:12;98945.06;;;18.23;46.04
35489;BME280;21602;55.670;37.578;2023-04-25T05:54:46;98943.88;;;18.29;46.14
35489;BME280;21602;55.670;37.578;2023-04-25T05:57:20;98935.69;;;18.34;45.75
35489;BME280;21602;55.670;37.578;2023-04-25T05:59:46;98943.25;;;18.32;45.83
35489;BME280;21602;55.670;37.578;2023-04-25T06:02:13;98938.38;;;18.34;45.59
35489;BME280;21602;55.670;37.578;2023-04-25T06:04:40;98943.22;;;18.37;45.59
35489;BME280;21602;55.670;37.578;2023-04-25T06:07:06;98935.94;;;18.52;45.52
35489;BME280;21602;55.670;37.578;2023-04-25T06:09:32;98936.84;;;18.61;45.25
35489;BME280;21602;55.670;37.578;2023-04-25T06:11:57;98931.63;;;18.51;45.45
35489;BME280;21602;55.670;37.578;2023-04-25T06:14:23;98932.59;;;18.41;45.33
35489;BME280;21602;55.670;37.578;2023-04-25T06:16:52;98923.19;;;18.38;45.11
35489;BME280;21602;55.670;37.578;2023-04-25T06:19:18;98917.63;;;18.49;45.02
35489;BME280;21602;55.670;37.578;2023-04-25T06:21:45;98918.31;;;18.54;44.88
35489;BME280;21602;55.670;37.578;2023-04-25T06:24:11;98912.53;;;18.61;44.83
35489;BME280;21602;55.670;37.578;2023-04-25T06:26:38;98909.97;;;18.70;44.94
35489;BME280;21602;55.670;37.578;2023-04-25T06:29:05;98913.72;;;18.87;44.58
35489;BME280;21602;55.670;37.578;2023-04-25T06:31:30;98917.34;;;18.97;44.14
35489;BME280;21602;55.670;37.578;2023-04-25T06:33:59;98912.13;;;19.00;43.15
35489;BME280;21602;55.670;37.578;2023-04-25T06:36:30;98914.34;;;19.12;43.05
35489;BME280;21602;55.670;37.578;2023-04-25T06:39:02;98907.44;;;19.19;42.42
35489;BME280;21602;55.670;37.578;2023-04-25T06:41:28;98908.94;;;19.26;42.35
35489;BME280;21602;55.670;37.578;2023-04-25T06:43:58;98909.03;;;19.34;42.66
35489;BME280;21602;55.670;37.578;2023-04-25T06:46:29;98910.72;;;19.44;42.41
35489;BME280;21602;55.670;37.578;2023-04-25T06:48:57;98910.94;;;19.48;41.46
35489;BME280;21602;55.670;37.578;2023-04-25T06:51:24;98912.53;;;19.49;41.76
35489;BME280;21602;55.670;37.578;2023-04-25T06:53:54;98916.56;;;19.37;41.52
35489;BME280;21602;55.670;37.578;2023-04-25T06:56:35;98915.44;;;19.38;41.11
35489;BME280;21602;55.670;37.578;2023-04-25T06:59:06;98911.03;;;19.42;40.52
35489;BME280;21602;55.670;37.578;2023-04-25T07:01:35;98907.22;;;19.43;40.55
35489;BME280;21602;55.670;37.578;2023-04-25T07:04:04;98911.72;;;19.48;40.59
35489;BME280;21602;55.670;37.578;2023-04-25T07:06:33;98903.72;;;19.43;40.42
35489;BME280;21602;55.670;37.578;2023-04-25T07:08:59;98916.56;;;19.37;40.37
35489;BME280;21602;55.670;37.578;2023-04-25T07:11:27;98917.34;;;19.52;40.54
35489;BME280;21602;55.670;37.578;2023-04-25T07:13:53;98914.13;;;19.63;40.61
35489;BME280;21602;55.670;37.578;2023-04-25T07:16:19;98913.72;;;19.70;40.21
35489;BME280;21602;55.670;37.578;2023-04-25T07:18:46;98913.81;;;19.65;39.97
35489;BME280;21602;55.670;37.578;2023-04-25T07:21:13;98909.13;;;19.71;40.03
35489;BME280;21602;55.670;37.578;2023-04-25T07:23:41;98910.22;;;19.69;39.94
35489;BME280;21602;55.670;37.578;2023-04-25T07:26:11;98911.13;;;19.65;40.23
35489;BME280;21602;55.670;37.578;2023-04-25T07:28:47;98907.13;;;19.49;40.21
35489;BME280;21602;55.670;37.578;2023-04-25T07:31:17;98907.59;;;19.51;40.04
35489;BME280;21602;55.670;37.578;2023-04-25T07:33:44;98909.13;;;19.57;40.14
35489;BME280;21602;55.670;37.578;2023-04-25T07:36:13;98904.91;;;19.64;40.26
35489;BME280;21602;55.670;37.578;2023-04-25T07:38:41;98902.06;;;19.56;40.03
35489;BME280;21602;55.670;37.578;2023-04-25T07:41:07;98914.13;;;19.50;40.03
35489;BME280;21602;55.670;37.578;2023-04-25T07:43:33;98904.59;;;19.52;40.07
35489;BME280;21602;55.670;37.578;2023-04-25T07:45:59;98908.63;;;19.68;39.62
35489;BME280;21602;55.670;37.578;2023-04-25T07:48:27;98912.53;;;19.76;39.09
35489;BME280;21602;55.670;37.578;2023-04-25T07:50:53;98906.31;;;19.76;39.42
35489;BME280;21602;55.670;37.578;2023-04-25T07:53:19;98910.50;;;19.82;39.44
35489;BME280;21602;55.670;37.578;2023-04-25T07:55:51;98912.53;;;19.76;40.10
35489;BME280;21602;55.670;37.578;2023-04-25T07:58:17;98910.50;;;19.82;40.18
35489;BME280;21602;55.670;37.578;2023-04-25T08:00:49;98907.88;;;19.90;40.08
35489;BME280;21602;55.670;37.578;2023-04-25T08:03:35;98911.94;;;20.02;39.24
35489;BME280;21602;55.670;37.578;2023-04-25T08:06:03;98905.16;;;20.13;38.91
35489;BME280;21602;55.670;37.578;2023-04-25T08:08:32;98907.41;;;20.33;38.92
35489;BME280;21602;55.670;37.578;2023-04-25T08:10:58;98903.22;;;20.50;38.75
35489;BME280;21602;55.670;37.578;2023-04-25T08:13:27;98913.31;;;20.35;38.25
35489;BME280;21602;55.670;37.578;2023-04-25T08:15:53;98909.44;;;20.28;38.34
35489;BME280;21602;55.670;37.578;2023-04-25T08:18:19;98902.09;;;20.28;38.05
35489;BME280;21602;55.670;37.578;2023-04-25T08:20:46;98904.91;;;20.45;38.10
35489;BME280;21602;55.670;37.578;2023-04-25T08:23:14;98891.88;;;20.25;37.78
35489;BME280;21602;55.670;37.578;2023-04-25T08:26:00;98898.88;;;20.26;38.06
35489;BME280;21602;55.670;37.578;2023-04-25T08:28:28;98899.34;;;20.42;37.92
35489;BME280;21602;55.670;37.578;2023-04-25T08:30:56;98895.94;;;20.59;37.39
35489;BME280;21602;55.670;37.578;2023-04-25T08:33:22;98899.03;;;20.66;37.47
35489;BME280;21602;55.670;37.578;2023-04-25T08:36:03;98886.09;;;20.63;37.50
35489;BME280;21602;55.670;37.578;2023-04-25T08:38:32;98899.63;;;20.40;37.94
35489;BME280;21602;55.670;37.578;2023-04-25T08:41:00;98882.38;;;20.36;37.74
35489;BME280;21602;55.670;37.578;2023-04-25T08:43:29;98886.59;;;20.42;37.94
35489;BME280;21602;55.670;37.578;2023-04-25T08:46:00;98888.88;;;20.49;37.60
35489;BME280;21602;55.670;37.578;2023-04-25T08:48:40;98888.78;;;20.63;37.46
35489;BME280;21602;55.670;37.578;2023-04-25T08:51:07;98877.63;;;20.64;37.58
35489;BME280;21602;55.670;37.578;2023-04-25T08:53:35;98882.28;;;20.41;38.02
35489;BME280;21602;55.670;37.578;2023-04-25T08:56:03;98879.06;;;20.39;38.03
35489;BME280;21602;55.670;37.578;2023-04-25T08:58:35;98865.63;;;20.57;38.10
35489;BME280;21602;55.670;37.578;2023-04-25T09:01:03;98870.19;;;20.70;37.67
35489;BME280;21602;55.670;37.578;2023-04-25T09:03:35;98868.75;;;20.73;37.65
35489;BME280;21602;55.670;37.578;2023-04-25T09:06:01;98869.72;;;20.77;36.83
35489;BME280;21602;55.670;37.578;2023-04-25T09:08:27;98864.47;;;20.80;37.38
35489;BME280;21602;55.670;37.578;2023-04-25T09:10:53;98864.78;;;20.79;37.23
35489;BME280;21602;55.670;37.578;2023-04-25T09:13:27;98864.75;;;20.70;37.22
35489;BME280;21602;55.670;37.578;2023-04-25T09:16:16;98855.84;;;20.47;36.88
35489;BME280;21602;55.670;37.578;2023-04-25T09:19:23;98861.06;;;20.43;37.00
35489;BME280;21602;55.670;37.578;2023-04-25T09:21:49;98858.25;;;20.49;36.66
35489;BME280;21602;55.670;37.578;2023-04-25T09:24:16;98855.91;;;20.33;37.42
35489;BME280;21602;55.670;37.578;2023-04-25T09:26:41;98847.97;;;20.37;37.23
35489;BME280;21602;55.670;37.578;2023-04-25T09:29:09;98851.56;;;20.55;37.42
35489;BME280;21602;55.670;37.578;2023-04-25T09:31:39;98841.00;;;20.76;37.26
35489;BME280;21602;55.670;37.578;2023-04-25T09:34:07;98847.84;;;21.13;36.81
35489;BME280;21602;55.670;37.578;2023-04-25T09:36:42;98844.41;;;21.38;36.02
35489;BME280;21602;55.670;37.578;2023-04-25T09:39:32;98843.16;;;21.53;35.76
35489;BME280;21602;55.670;37.578;2023-04-25T09:42:09;98835.19;;;21.65;35.81
35489;BME280;21602;55.670;37.578;2023-04-25T09:44:36;98837.09;;;21.56;35.57
35489;BME280;21602;55.670;37.578;2023-04-25T09:47:02;98835.63;;;21.41;35.68
35489;BME280;21602;55.670;37.578;2023-04-25T09:49:29;98827.63;;;21.45;35.71
35489;BME280;21602;55.670;37.578;2023-04-25T09:52:09;98827.16;;;21.43;35.29
35489;BME280;21602;55.670;37.578;2023-04-25T09:54:41;98829.38;;;21.41;35.78
35489;BME280;21602;55.670;37.578;2023-04-25T09:57:19;98825.72;;;21.45;35.09
35489;BME280;21602;55.670;37.578;2023-04-25T09:59:48;98826.53;;;21.46;35.46
35489;BME280;21602;55.670;37.578;2023-04-25T10:02:16;98829.41;;;21.50;35.02
35489;BME280;21602;55.670;37.578;2023-04-25T10:04:48;98812.00;;;21.59;35.00
35489;BME280;21602;55.670;37.578;2023-04-25T10:07:23;98814.38;;;21.78;35.02
35489;BME280;21602;55.670;37.578;2023-04-25T10:09:56;98827.19;;;21.86;34.99
35489;BME280;21602;55.670;37.578;2023-04-25T10:12:26;98820.78;;;21.99;34.60
35489;BME280;21602;55.670;37.578;2023-04-25T10:14:52;98818.53;;;22.10;34.37
35489;BME280;21602;55.670;37.578;2023-04-25T10:17:19;98808.78;;;22.18;34.08
35489;BME280;21602;55.670;37.578;2023-04-25T10:19:47;98807.50;;;22.24;34.15
35489;BME280;21602;55.670;37.578;2023-04-25T10:22:14;98802.84;;;22.24;33.74
35489;BME280;21602;55.670;37.578;2023-04-25T10:24:43;98794.25;;;22.14;33.92
35489;BME280;21602;55.670;37.578;2023-04-25T10:27:10;98797.91;;;22.09;34.24
35489;BME280;21602;55.670;37.578;2023-04-25T10:29:36;98807.34;;;22.03;33.97
35489;BME280;21602;55.670;37.578;2023-04-25T10:32:04;98801.59;;;22.05;34.92
35489;BME280;21602;55.670;37.578;2023-04-25T10:34:41;98788.31;;;22.12;34.00
35489;BME280;21602;55.670;37.578;2023-04-25T10:37:11;98794.53;;;22.21;33.87
35489;BME280;21602;55.670;37.578;2023-04-25T10:39:41;98788.28;;;22.29;33.68
35489;BME280;21602;55.670;37.578;2023-04-25T10:42:07;98784.94;;;22.32;33.73
35489;BME280;21602;55.670;37.578;2023-04-25T10:44:34;98780.91;;;22.30;34.18
35489;BME280;21602;55.670;37.578;2023-04-25T10:47:01;98774.34;;;22.31;34.04
35489;BME280;21602;55.670;37.578;2023-04-25T10:54:43;98774.28;;;21.75;34.35
35489;BME280;21602;55.670;37.578;2023-04-25T10:57:29;98757.84;;;21.71;34.56
35489;BME280;21602;55.670;37.578;2023-04-25T11:00:18;98768.53;;;21.68;35.08
35489;BME280;21602;55.670;37.578;2023-04-25T11:02:51;98763.44;;;21.58;34.98
35489;BME280;21602;55.670;37.578;2023-04-25T11:05:34;98755.94;;;21.46;35.35
35489;BME280;21602;55.670;37.578;2023-04-25T11:08:01;98760.03;;;21.09;35.58
35489;BME280;21602;55.670;37.578;2023-04-25T11:10:29;98756.28;;;20.79;36.10
35489;BME280;21602;55.670;37.578;2023-04-25T11:12:56;98752.44;;;20.71;36.36
35489;BME280;21602;55.670;37.578;2023-04-25T11:15:22;98740.66;;;20.84;36.42
35489;BME280;21602;55.670;37.578;2023-04-25T11:17:51;98735.28;;;21.10;35.78
35489;BME280;21602;55.670;37.578;2023-04-25T11:20:17;98744.44;;;21.32;35.53
35489;BME280;21602;55.670;37.578;2023-04-25T11:22:45;98733.09;;;21.56;35.53
35489;BME280;21602;55.670;37.578;2023-04-25T11:25:12;98733.56;;;21.66;35.29
35489;BME280;21602;55.670;37.578;2023-04-25T11:27:51;98727.66;;;21.56;34.99
35489;BME280;21602;55.670;37.578;2023-04-25T11:30:18;98723.34;;;21.46;35.43
35489;BME280;21602;55.670;37.578;2023-04-25T11:32:44;98716.47;;;21.31;35.55
35489;BME280;21602;55.670;37.578;2023-04-25T11:35:11;98714.38;;;21.19;35.75
35489;BME280;21602;55.670;37.578;2023-04-25T11:37:41;98715.31;;;21.15;36.01
35489;BME280;21602;55.670;37.578;2023-04-25T11:40:08;98712.28;;;21.16;35.89
35489;BME280;21602;55.670;37.578;2023-04-25T11:42:39;98710.88;;;21.36;35.58
35489;BME280;21602;55.670;37.578;2023-04-25T11:45:08;98709.91;;;21.50;35.64
35489;BME280;21602;55.670;37.578;2023-04-25T11:47:35;98711.66;;;21.63;35.39
35489;BME280;21602;55.670;37.578;2023-04-25T11:50:02;98706.84;;;21.77;35.61
35489;BME280;21602;55.670;37.578;2023-04-25T11:55:12;98701.22;;;21.91;34.80
35489;BME280;21602;55.670;37.578;2023-04-25T11:57:39;98702.94;;;22.04;35.45
35489;BME280;21602;55.670;37.578;2023-04-25T12:00:17;98699.28;;;21.91;35.04
35489;BME280;21602;55.670;37.578;2023-04-25T12:02:51;98692.81;;;21.58;35.33
35489;BME280;21602;55.670;37.578;2023-04-25T12:05:17;98682.75;;;21.41;35.59
35489;BME280;21602;55.670;37.578;2023-04-25T12:07:43;98681.34;;;21.17;35.79
35489;BME280;21602;55.670;37.578;2023-04-25T12:10:11;98679.41;;;21.01;35.81
35489;BME280;21602;55.670;37.578;2023-04-25T12:12:41;98678.44;;;20.96;36.26
35489;BME280;21602;55.670;37.578;2023-04-25T12:17:44;98677.50;;;21.27;36.15
35489;BME280;21602;55.670;37.578;2023-04-25T12:20:14;98668.22;;;21.28;35.79
35489;BME280;21602;55.670;37.578;2023-04-25T12:22:45;98668.09;;;21.33;36.13
35489;BME280;21602;55.670;37.578;2023-04-25T12:25:13;98662.00;;;21.45;36.31
35489;BME280;21602;55.670;37.578;2023-04-25T12:28:18;98670.47;;;21.61;36.19
35489;BME280;21602;55.670;37.578;2023-04-25T12:30:53;98663.72;;;21.67;35.91
35489;BME280;21602;55.670;37.578;2023-04-25T12:33:21;98655.41;;;21.63;35.97
35489;BME280;21602;55.670;37.578;2023-04-25T12:35:47;98657.97;;;21.68;36.44
35489;BME280;21602;55.670;37.578;2023-04-25T12:38:27;98641.19;;;21.66;36.30
35489;BME280;21602;55.670;37.578;2023-04-25T12:40:56;98637.66;;;21.75;36.07
35489;BME280;21602;55.670;37.578;2023-04-25T12:43:22;98640.84;;;21.77;35.85
35489;BME280;21602;55.670;37.578;2023-04-25T12:45:52;98628.81;;;21.86;35.63
35489;BME280;21602;55.670;37.578;2023-04-25T12:48:19;98632.31;;;21.95;35.71
35489;BME280;21602;55.670;37.578;2023-04-25T12:50:46;98629.56;;;22.04;36.12
35489;BME280;21602;55.670;37.578;2023-04-25T12:53:17;98624.28;;;22.08;35.60
35489;BME280;21602;55.670;37.578;2023-04-25T12:55:43;98621.88;;;22.15;36.06
35489;BME280;21602;55.670;37.578;2023-04-25T12:58:11;98609.38;;;22.22;35.71
35489;BME280;21602;55.670;37.578;2023-04-25T13:00:37;98604.03;;;22.26;35.54
35489;BME280;21602;55.670;37.578;2023-04-25T13:03:03;98605.78;;;22.31;35.42
35489;BME280;21602;55.670;37.578;2023-04-25T13:05:30;98602.59;;;22.29;35.25
35489;BME280;21602;55.670;37.578;2023-04-25T13:07:56;98605.66;;;21.89;35.41
35489;BME280;21602;55.670;37.578;2023-04-25T13:10:22;98601.78;;;21.52;35.68
35489;BME280;21602;55.670;37.578;2023-04-25T13:12:50;98591.91;;;21.38;35.78
35489;BME280;21602;55.670;37.578;2023-04-25T13:15:16;98585.19;;;21.36;36.10